sensor_id;sensor_type;location;lat;lon;timestamp;temperature;humidity
5150;DHT22;2593;52.466;13.436;2023-09-07T00:00:42;20.00;1.00
5150;DHT22;2593;52.466;13.436;2023-09-07T00:03:08;19.90;1.00
5150;DHT22;2593;52.466;13.436;2023-09-07T00:05:33;19.90;1.00
5150;DHT22;2593;52.466;13.436;2023-09-07T00:07:59;19.90;1.00
5150;DHT22;2593;52.466;13.436;2023-09-07T00:10:25;19.90;1.00
5150;DHT22;2593;52.466;13.436;2023-09-07T00:12:51;19.90;1.00
5150;DHT22;2593;52.466;13.436;2023-09-07T00:15:17;19.90;1.00
5150;DHT22;2593;52.466;13.436;2023-09-07T00:17:44;20.00;1.00
5150;DHT22;2593;52.466;13.436;2023-09-07T00:20:10;20.00;1.00
5150;DHT22;2593;52.466;13.436;2023-09-07T00:22:36;20.00;1.00
5150;DHT22;2593;52.466;13.436;2023-09-07T00:25:02;20.10;1.00
5150;DHT22;2593;52.466;13.436;2023-09-07T00:27:29;20.00;1.00
5150;DHT22;2593;52.466;13.436;2023-09-07T00:29:55;20.00;1.00
5150;DHT22;2593;52.466;13.436;2023-09-07T00:32:20;19.90;1.00
5150;DHT22;2593;52.466;13.436;2023-09-07T00:34:46;19.90;1.00
5150;DHT22;2593;52.466;13.436;2023-09-07T00:37:11;19.90;1.00
5150;DHT22;2593;52.466;13.436;2023-09-07T00:39:37;19.80;1.00
5150;DHT22;2593;52.466;13.436;2023-09-07T00:42:03;19.80;1.00
5150;DHT22;2593;52.466;13.436;2023-09-07T00:44:29;19.70;1.00
5150;DHT22;2593;52.466;13.436;2023-09-07T00:46:55;19.70;1.00
5150;DHT22;2593;52.466;13.436;2023-09-07T00:49:21;19.70;1.00
5150;DHT22;2593;52.466;13.436;2023-09-07T00:51:48;19.70;1.00
5150;DHT22;2593;52.466;13.436;2023-09-07T00:54:13;19.60;1.00
5150;DHT22;2593;52.466;13.436;2023-09-07T00:56:39;19.60;1.00
5150;DHT22;2593;52.466;13.436;2023-09-07T00:59:05;19.60;1.00
5150;DHT22;2593;52.466;13.436;2023-09-07T01:01:32;19.60;1.00
5150;DHT22;2593;52.466;13.436;2023-09-07T01:03:58;19.50;1.00
5150;DHT22;2593;52.466;13.436;2023-09-07T01:06:29;19.50;1.00
5150;DHT22;2593;52.466;13.436;2023-09-07T01:08:55;19.50;1.00
5150;DHT22;2593;52.466;13.436;2023-09-07T01:11:22;19.50;1.00
5150;DHT22;2593;52.466;13.436;2023-09-07T01:13:48;19.50;1.00
5150;DHT22;2593;52.466;13.436;2023-09-07T01:16:14;19.50;1.00
5150;DHT22;2593;52.466;13.436;2023-09-07T01:18:40;19.50;1.00
5150;DHT22;2593;52.466;13.436;2023-09-07T01:21:08;19.50;1.00
5150;DHT22;2593;52.466;13.436;2023-09-07T01:23:37;19.40;1.00
5150;DHT22;2593;52.466;13.436;2023-09-07T01:26:03;19.40;1.00
5150;DHT22;2593;52.466;13.436;2023-09-07T01:28:29;19.40;1.00
5150;DHT22;2593;52.466;13.436;2023-09-07T01:30:55;19.40;1.00
5150;DHT22;2593;52.466;13.436;2023-09-07T01:33:20;19.30;1.00
5150;DHT22;2593;52.466;13.436;2023-09-07T01:35:46;19.30;1.00
5150;DHT22;2593;52.466;13.436;2023-09-07T01:38:11;19.30;1.00
5150;DHT22;2593;52.466;13.436;2023-09-07T01:40:37;19.30;1.00
5150;DHT22;2593;52.466;13.436;2023-09-07T01:43:02;19.30;1.00
5150;DHT22;2593;52.466;13.436;2023-09-07T01:45:28;19.30;1.00
5150;DHT22;2593;52.466;13.436;2023-09-07T01:47:53;19.20;1.00
5150;DHT22;2593;52.466;13.436;2023-09-07T01:50:19;19.20;1.00
5150;DHT22;2593;52.466;13.436;2023-09-07T01:52:48;19.20;1.00
5150;DHT22;2593;52.466;13.436;2023-09-07T01:55:16;19.20;1.00
5150;DHT22;2593;52.466;13.436;2023-09-07T01:57:42;19.20;1.00
5150;DHT22;2593;52.466;13.436;2023-09-07T02:00:07;19.20;1.00
5150;DHT22;2593;52.466;13.436;2023-09-07T02:02:33;19.30;1.00
5150;DHT22;2593;52.466;13.436;2023-09-07T02:04:58;19.10;1.00
5150;DHT22;2593;52.466;13.436;2023-09-07T02:07:24;19.20;1.00
5150;DHT22;2593;52.466;13.436;2023-09-07T02:09:49;19.10;1.00
5150;DHT22;2593;52.466;13.436;2023-09-07T02:12:15;19.10;1.00
5150;DHT22;2593;52.466;13.436;2023-09-07T02:14:40;19.00;1.00
5150;DHT22;2593;52.466;13.436;2023-09-07T02:17:06;19.10;1.00
5150;DHT22;2593;52.466;13.436;2023-09-07T02:19:32;19.10;1.00
5150;DHT22;2593;52.466;13.436;2023-09-07T02:21:57;19.00;1.00
5150;DHT22;2593;52.466;13.436;2023-09-07T02:24:23;19.00;1.00
5150;DHT22;2593;52.466;13.436;2023-09-07T02:26:48;19.00;1.00
5150;DHT22;2593;52.466;13.436;2023-09-07T02:29:14;18.90;1.00
5150;DHT22;2593;52.466;13.436;2023-09-07T02:31:40;18.90;1.00
5150;DHT22;2593;52.466;13.436;2023-09-07T02:34:06;18.80;1.00
5150;DHT22;2593;52.466;13.436;2023-09-07T02:36:32;18.80;1.00
5150;DHT22;2593;52.466;13.436;2023-09-07T02:38:58;18.80;1.00
5150;DHT22;2593;52.466;13.436;2023-09-07T02:41:23;18.60;1.00
5150;DHT22;2593;52.466;13.436;2023-09-07T02:43:49;18.60;1.00
5150;DHT22;2593;52.466;13.436;2023-09-07T02:46:14;18.50;1.00
5150;DHT22;2593;52.466;13.436;2023-09-07T02:48:41;18.50;1.00
5150;DHT22;2593;52.466;13.436;2023-09-07T02:51:06;18.50;1.00
5150;DHT22;2593;52.466;13.436;2023-09-07T02:53:32;18.40;1.00
5150;DHT22;2593;52.466;13.436;2023-09-07T02:55:57;18.30;1.00
5150;DHT22;2593;52.466;13.436;2023-09-07T02:58:23;18.20;1.00
5150;DHT22;2593;52.466;13.436;2023-09-07T03:00:49;18.20;1.00
5150;DHT22;2593;52.466;13.436;2023-09-07T03:03:15;18.20;1.00
5150;DHT22;2593;52.466;13.436;2023-09-07T03:05:41;18.20;1.00
5150;DHT22;2593;52.466;13.436;2023-09-07T03:08:06;18.10;1.00
5150;DHT22;2593;52.466;13.436;2023-09-07T03:10:34;18.10;1.00
5150;DHT22;2593;52.466;13.436;2023-09-07T03:13:00;18.10;1.00
5150;DHT22;2593;52.466;13.436;2023-09-07T03:15:25;18.00;1.00
5150;DHT22;2593;52.466;13.436;2023-09-07T03:17:51;17.90;1.00
5150;DHT22;2593;52.466;13.436;2023-09-07T03:20:17;18.00;1.00
5150;DHT22;2593;52.466;13.436;2023-09-07T03:22:43;18.00;1.00
5150;DHT22;2593;52.466;13.436;2023-09-07T03:25:09;18.00;1.00
5150;DHT22;2593;52.466;13.436;2023-09-07T03:27:37;18.00;1.00
5150;DHT22;2593;52.466;13.436;2023-09-07T03:30:03;18.00;1.00
5150;DHT22;2593;52.466;13.436;2023-09-07T03:32:29;17.90;1.00
5150;DHT22;2593;52.466;13.436;2023-09-07T03:35:02;17.80;1.00
5150;DHT22;2593;52.466;13.436;2023-09-07T03:37:28;17.80;1.00
5150;DHT22;2593;52.466;13.436;2023-09-07T03:39:54;17.80;1.00
5150;DHT22;2593;52.466;13.436;2023-09-07T03:42:20;18.00;1.00
5150;DHT22;2593;52.466;13.436;2023-09-07T03:44:45;18.00;1.00
5150;DHT22;2593;52.466;13.436;2023-09-07T03:47:13;17.90;1.00
5150;DHT22;2593;52.466;13.436;2023-09-07T03:49:38;17.80;1.00
5150;DHT22;2593;52.466;13.436;2023-09-07T03:52:04;17.90;1.00
5150;DHT22;2593;52.466;13.436;2023-09-07T03:54:30;17.70;1.00
5150;DHT22;2593;52.466;13.436;2023-09-07T03:56:56;17.70;1.00
5150;DHT22;2593;52.466;13.436;2023-09-07T03:59:22;17.60;1.00
5150;DHT22;2593;52.466;13.436;2023-09-07T04:01:47;17.50;1.00
5150;DHT22;2593;52.466;13.436;2023-09-07T04:04:13;17.40;1.00
5150;DHT22;2593;52.466;13.436;2023-09-07T04:06:38;17.40;1.00
5150;DHT22;2593;52.466;13.436;2023-09-07T04:09:04;17.40;1.00
5150;DHT22;2593;52.466;13.436;2023-09-07T04:11:29;17.40;1.00
5150;DHT22;2593;52.466;13.436;2023-09-07T04:13:55;17.30;1.00
5150;DHT22;2593;52.466;13.436;2023-09-07T04:16:20;17.20;1.00
5150;DHT22;2593;52.466;13.436;2023-09-07T04:18:46;17.20;1.00
5150;DHT22;2593;52.466;13.436;2023-09-07T04:21:11;17.20;1.00
5150;DHT22;2593;52.466;13.436;2023-09-07T04:23:37;17.10;1.00
5150;DHT22;2593;52.466;13.436;2023-09-07T04:26:07;17.10;1.00
5150;DHT22;2593;52.466;13.436;2023-09-07T04:28:33;17.10;1.00
5150;DHT22;2593;52.466;13.436;2023-09-07T04:30:58;17.10;1.00
5150;DHT22;2593;52.466;13.436;2023-09-07T04:33:24;17.10;1.00
5150;DHT22;2593;52.466;13.436;2023-09-07T04:35:49;17.10;8.90
5150;DHT22;2593;52.466;13.436;2023-09-07T04:38:15;17.00;23.60
5150;DHT22;2593;52.466;13.436;2023-09-07T04:40:40;17.00;28.50
5150;DHT22;2593;52.466;13.436;2023-09-07T04:43:06;17.00;31.10
5150;DHT22;2593;52.466;13.436;2023-09-07T04:45:31;16.90;40.70
5150;DHT22;2593;52.466;13.436;2023-09-07T04:47:57;16.90;32.80
5150;DHT22;2593;52.466;13.436;2023-09-07T04:50:22;16.90;48.70
5150;DHT22;2593;52.466;13.436;2023-09-07T04:52:48;16.80;53.00
5150;DHT22;2593;52.466;13.436;2023-09-07T04:55:13;16.80;58.90
5150;DHT22;2593;52.466;13.436;2023-09-07T04:57:39;16.80;68.40
5150;DHT22;2593;52.466;13.436;2023-09-07T05:00:07;16.80;61.40
5150;DHT22;2593;52.466;13.436;2023-09-07T05:02:34;16.90;63.40
5150;DHT22;2593;52.466;13.436;2023-09-07T05:05:05;16.90;50.80
5150;DHT22;2593;52.466;13.436;2023-09-07T05:07:31;17.00;48.60
5150;DHT22;2593;52.466;13.436;2023-09-07T05:09:57;17.00;28.90
5150;DHT22;2593;52.466;13.436;2023-09-07T05:12:22;17.00;31.50
5150;DHT22;2593;52.466;13.436;2023-09-07T05:14:48;17.10;21.60
5150;DHT22;2593;52.466;13.436;2023-09-07T05:17:13;17.10;11.50
5150;DHT22;2593;52.466;13.436;2023-09-07T05:19:39;17.20;1.00
5150;DHT22;2593;52.466;13.436;2023-09-07T05:22:04;17.20;1.00
5150;DHT22;2593;52.466;13.436;2023-09-07T05:24:30;17.30;1.00
5150;DHT22;2593;52.466;13.436;2023-09-07T05:26:55;17.50;1.00
5150;DHT22;2593;52.466;13.436;2023-09-07T05:29:21;17.50;1.00
5150;DHT22;2593;52.466;13.436;2023-09-07T05:31:48;17.60;1.00
5150;DHT22;2593;52.466;13.436;2023-09-07T05:34:13;17.70;1.00
5150;DHT22;2593;52.466;13.436;2023-09-07T05:36:39;17.70;1.00
5150;DHT22;2593;52.466;13.436;2023-09-07T05:39:04;17.90;1.00
5150;DHT22;2593;52.466;13.436;2023-09-07T05:41:30;17.80;1.00
5150;DHT22;2593;52.466;13.436;2023-09-07T05:43:55;17.80;1.00
5150;DHT22;2593;52.466;13.436;2023-09-07T05:46:21;17.90;1.00
5150;DHT22;2593;52.466;13.436;2023-09-07T05:48:46;17.90;1.00
5150;DHT22;2593;52.466;13.436;2023-09-07T05:51:12;17.80;1.00
5150;DHT22;2593;52.466;13.436;2023-09-07T05:53:38;17.90;1.00
5150;DHT22;2593;52.466;13.436;2023-09-07T05:56:04;17.90;1.00
5150;DHT22;2593;52.466;13.436;2023-09-07T05:58:29;18.00;1.00
5150;DHT22;2593;52.466;13.436;2023-09-07T06:00:55;18.00;1.00
5150;DHT22;2593;52.466;13.436;2023-09-07T06:03:21;18.00;1.00
5150;DHT22;2593;52.466;13.436;2023-09-07T06:05:46;18.00;1.00
5150;DHT22;2593;52.466;13.436;2023-09-07T06:08:12;18.10;1.00
5150;DHT22;2593;52.466;13.436;2023-09-07T06:10:37;18.10;1.00
5150;DHT22;2593;52.466;13.436;2023-09-07T06:13:03;18.20;1.00
5150;DHT22;2593;52.466;13.436;2023-09-07T06:15:29;18.30;1.00
5150;DHT22;2593;52.466;13.436;2023-09-07T06:17:54;18.40;1.00
5150;DHT22;2593;52.466;13.436;2023-09-07T06:20:20;18.50;1.00
5150;DHT22;2593;52.466;13.436;2023-09-07T06:22:45;18.60;1.00
5150;DHT22;2593;52.466;13.436;2023-09-07T06:25:11;18.80;1.00
5150;DHT22;2593;52.466;13.436;2023-09-07T06:27:36;18.90;1.00
5150;DHT22;2593;52.466;13.436;2023-09-07T06:30:04;19.00;1.00
5150;DHT22;2593;52.466;13.436;2023-09-07T06:32:29;19.10;1.00
5150;DHT22;2593;52.466;13.436;2023-09-07T06:34:55;19.10;1.00
5150;DHT22;2593;52.466;13.436;2023-09-07T06:37:20;19.20;1.00
5150;DHT22;2593;52.466;13.436;2023-09-07T06:39:46;19.50;1.00
5150;DHT22;2593;52.466;13.436;2023-09-07T06:42:11;19.60;1.00
5150;DHT22;2593;52.466;13.436;2023-09-07T06:44:37;19.70;1.00
5150;DHT22;2593;52.466;13.436;2023-09-07T06:47:03;19.90;1.00
5150;DHT22;2593;52.466;13.436;2023-09-07T06:49:28;20.20;1.00
5150;DHT22;2593;52.466;13.436;2023-09-07T06:51:57;20.60;1.00
5150;DHT22;2593;52.466;13.436;2023-09-07T06:54:23;20.90;1.00
5150;DHT22;2593;52.466;13.436;2023-09-07T06:56:48;21.20;1.00
5150;DHT22;2593;52.466;13.436;2023-09-07T06:59:14;21.30;1.00
5150;DHT22;2593;52.466;13.436;2023-09-07T07:01:39;21.40;1.00
5150;DHT22;2593;52.466;13.436;2023-09-07T07:04:05;21.80;1.00
5150;DHT22;2593;52.466;13.436;2023-09-07T07:06:30;22.10;1.00
5150;DHT22;2593;52.466;13.436;2023-09-07T07:08:56;22.50;1.00
5150;DHT22;2593;52.466;13.436;2023-09-07T07:11:21;23.10;1.00
5150;DHT22;2593;52.466;13.436;2023-09-07T07:13:47;23.50;1.00
5150;DHT22;2593;52.466;13.436;2023-09-07T07:16:12;24.00;1.00
5150;DHT22;2593;52.466;13.436;2023-09-07T07:18:39;24.10;1.00
5150;DHT22;2593;52.466;13.436;2023-09-07T07:21:05;24.20;1.00
5150;DHT22;2593;52.466;13.436;2023-09-07T07:23:30;24.50;1.00
5150;DHT22;2593;52.466;13.436;2023-09-07T07:25:56;24.80;1.00
5150;DHT22;2593;52.466;13.436;2023-09-07T07:28:21;25.20;1.00
5150;DHT22;2593;52.466;13.436;2023-09-07T07:30:47;25.40;1.00
5150;DHT22;2593;52.466;13.436;2023-09-07T07:33:13;24.80;1.00
5150;DHT22;2593;52.466;13.436;2023-09-07T07:35:39;25.10;1.00
5150;DHT22;2593;52.466;13.436;2023-09-07T07:38:04;25.20;1.00
5150;DHT22;2593;52.466;13.436;2023-09-07T07:40:31;25.90;1.00
5150;DHT22;2593;52.466;13.436;2023-09-07T07:42:57;26.50;1.00
5150;DHT22;2593;52.466;13.436;2023-09-07T07:45:22;26.90;1.00
5150;DHT22;2593;52.466;13.436;2023-09-07T07:47:48;27.50;1.00
5150;DHT22;2593;52.466;13.436;2023-09-07T07:50:14;28.60;1.00
5150;DHT22;2593;52.466;13.436;2023-09-07T07:52:39;29.80;99.90
5150;DHT22;2593;52.466;13.436;2023-09-07T07:55:06;30.00;99.90
5150;DHT22;2593;52.466;13.436;2023-09-07T07:57:31;30.20;99.90
5150;DHT22;2593;52.466;13.436;2023-09-07T07:59:57;30.40;99.90
5150;DHT22;2593;52.466;13.436;2023-09-07T08:02:22;30.70;99.90
5150;DHT22;2593;52.466;13.436;2023-09-07T08:04:48;31.20;99.90
5150;DHT22;2593;52.466;13.436;2023-09-07T08:07:13;31.50;99.90
5150;DHT22;2593;52.466;13.436;2023-09-07T08:09:39;32.10;99.90
5150;DHT22;2593;52.466;13.436;2023-09-07T08:12:05;31.80;99.90
5150;DHT22;2593;52.466;13.436;2023-09-07T08:14:30;33.00;99.90
5150;DHT22;2593;52.466;13.436;2023-09-07T08:16:56;34.80;99.90
5150;DHT22;2593;52.466;13.436;2023-09-07T08:19:21;35.80;99.90
5150;DHT22;2593;52.466;13.436;2023-09-07T08:21:47;35.00;99.90
5150;DHT22;2593;52.466;13.436;2023-09-07T08:24:13;34.40;99.90
5150;DHT22;2593;52.466;13.436;2023-09-07T08:26:38;35.20;99.90
5150;DHT22;2593;52.466;13.436;2023-09-07T08:29:04;35.60;99.90
5150;DHT22;2593;52.466;13.436;2023-09-07T08:31:34;35.50;99.90
5150;DHT22;2593;52.466;13.436;2023-09-07T08:34:00;35.10;99.90
5150;DHT22;2593;52.466;13.436;2023-09-07T08:36:26;33.90;99.90
5150;DHT22;2593;52.466;13.436;2023-09-07T08:38:53;34.70;99.90
5150;DHT22;2593;52.466;13.436;2023-09-07T08:41:20;35.00;99.90
5150;DHT22;2593;52.466;13.436;2023-09-07T08:43:45;34.60;99.90
5150;DHT22;2593;52.466;13.436;2023-09-07T08:46:15;35.30;99.90
5150;DHT22;2593;52.466;13.436;2023-09-07T08:48:43;36.80;99.90
5150;DHT22;2593;52.466;13.436;2023-09-07T08:51:09;35.70;99.90
5150;DHT22;2593;52.466;13.436;2023-09-07T08:53:37;36.80;99.90
5150;DHT22;2593;52.466;13.436;2023-09-07T08:56:02;37.70;99.90
5150;DHT22;2593;52.466;13.436;2023-09-07T08:58:28;37.10;99.90
5150;DHT22;2593;52.466;13.436;2023-09-07T09:00:54;38.10;99.90
5150;DHT22;2593;52.466;13.436;2023-09-07T09:03:23;37.70;99.90
5150;DHT22;2593;52.466;13.436;2023-09-07T09:05:50;36.80;99.90
5150;DHT22;2593;52.466;13.436;2023-09-07T09:08:15;37.90;99.90
5150;DHT22;2593;52.466;13.436;2023-09-07T09:10:45;37.20;99.90
5150;DHT22;2593;52.466;13.436;2023-09-07T09:13:11;36.00;99.90
5150;DHT22;2593;52.466;13.436;2023-09-07T09:15:37;34.90;99.90
5150;DHT22;2593;52.466;13.436;2023-09-07T09:18:09;34.30;99.90
5150;DHT22;2593;52.466;13.436;2023-09-07T09:20:37;34.40;99.90
5150;DHT22;2593;52.466;13.436;2023-09-07T09:23:03;34.60;99.90
5150;DHT22;2593;52.466;13.436;2023-09-07T09:25:30;34.30;99.90
5150;DHT22;2593;52.466;13.436;2023-09-07T09:27:56;33.80;99.90
5150;DHT22;2593;52.466;13.436;2023-09-07T09:30:22;35.00;99.90
5150;DHT22;2593;52.466;13.436;2023-09-07T09:32:48;34.60;99.90
5150;DHT22;2593;52.466;13.436;2023-09-07T09:35:15;35.10;99.90
5150;DHT22;2593;52.466;13.436;2023-09-07T09:37:45;35.20;99.90
5150;DHT22;2593;52.466;13.436;2023-09-07T09:40:11;36.90;99.90
5150;DHT22;2593;52.466;13.436;2023-09-07T09:42:37;37.30;99.90
5150;DHT22;2593;52.466;13.436;2023-09-07T09:45:04;37.80;99.90
5150;DHT22;2593;52.466;13.436;2023-09-07T09:47:30;37.70;99.90
5150;DHT22;2593;52.466;13.436;2023-09-07T09:49:56;38.10;99.90
5150;DHT22;2593;52.466;13.436;2023-09-07T09:52:23;36.80;99.90
5150;DHT22;2593;52.466;13.436;2023-09-07T09:54:49;37.60;99.90
5150;DHT22;2593;52.466;13.436;2023-09-07T09:57:15;35.90;99.90
5150;DHT22;2593;52.466;13.436;2023-09-07T09:59:41;35.60;99.90
5150;DHT22;2593;52.466;13.436;2023-09-07T10:02:06;35.70;99.90
5150;DHT22;2593;52.466;13.436;2023-09-07T10:04:33;36.00;99.90
5150;DHT22;2593;52.466;13.436;2023-09-07T10:06:59;35.40;99.90
5150;DHT22;2593;52.466;13.436;2023-09-07T10:09:29;34.90;99.90
5150;DHT22;2593;52.466;13.436;2023-09-07T10:11:57;34.60;99.90
5150;DHT22;2593;52.466;13.436;2023-09-07T10:14:22;34.50;99.90
5150;DHT22;2593;52.466;13.436;2023-09-07T10:16:49;34.90;99.90
5150;DHT22;2593;52.466;13.436;2023-09-07T10:19:16;35.40;99.90
5150;DHT22;2593;52.466;13.436;2023-09-07T10:21:42;35.20;99.90
5150;DHT22;2593;52.466;13.436;2023-09-07T10:24:07;34.60;99.90
5150;DHT22;2593;52.466;13.436;2023-09-07T10:26:33;35.20;99.90
5150;DHT22;2593;52.466;13.436;2023-09-07T10:28:59;34.60;99.90
5150;DHT22;2593;52.466;13.436;2023-09-07T10:31:27;33.90;99.90
5150;DHT22;2593;52.466;13.436;2023-09-07T10:33:52;33.60;99.90
5150;DHT22;2593;52.466;13.436;2023-09-07T10:36:27;32.60;99.90
5150;DHT22;2593;52.466;13.436;2023-09-07T10:38:54;31.80;99.90
5150;DHT22;2593;52.466;13.436;2023-09-07T10:41:19;30.70;99.90
5150;DHT22;2593;52.466;13.436;2023-09-07T10:46:13;30.00;99.90
5150;DHT22;2593;52.466;13.436;2023-09-07T10:48:39;29.70;99.90
5150;DHT22;2593;52.466;13.436;2023-09-07T10:51:04;29.40;99.90
5150;DHT22;2593;52.466;13.436;2023-09-07T10:53:31;29.10;99.90
5150;DHT22;2593;52.466;13.436;2023-09-07T10:55:58;28.90;99.90
5150;DHT22;2593;52.466;13.436;2023-09-07T10:58:27;29.00;99.90
5150;DHT22;2593;52.466;13.436;2023-09-07T11:00:53;29.10;99.90
5150;DHT22;2593;52.466;13.436;2023-09-07T11:03:19;28.80;99.90
5150;DHT22;2593;52.466;13.436;2023-09-07T11:05:44;28.60;99.90
5150;DHT22;2593;52.466;13.436;2023-09-07T11:08:10;28.40;99.90
5150;DHT22;2593;52.466;13.436;2023-09-07T11:10:36;28.60;99.90
5150;DHT22;2593;52.466;13.436;2023-09-07T11:13:03;28.30;99.90
5150;DHT22;2593;52.466;13.436;2023-09-07T11:15:29;28.40;99.90
5150;DHT22;2593;52.466;13.436;2023-09-07T11:17:55;28.50;99.90
5150;DHT22;2593;52.466;13.436;2023-09-07T11:20:21;28.50;99.90
5150;DHT22;2593;52.466;13.436;2023-09-07T11:22:46;28.40;99.90
5150;DHT22;2593;52.466;13.436;2023-09-07T11:25:12;28.30;99.90
5150;DHT22;2593;52.466;13.436;2023-09-07T11:27:39;28.20;99.90
5150;DHT22;2593;52.466;13.436;2023-09-07T11:30:05;28.10;99.90
5150;DHT22;2593;52.466;13.436;2023-09-07T11:32:36;27.90;99.90
5150;DHT22;2593;52.466;13.436;2023-09-07T11:35:02;28.00;99.90
5150;DHT22;2593;52.466;13.436;2023-09-07T11:37:32;28.00;99.90
5150;DHT22;2593;52.466;13.436;2023-09-07T11:39:58;27.90;99.90
5150;DHT22;2593;52.466;13.436;2023-09-07T11:42:23;28.00;99.90
5150;DHT22;2593;52.466;13.436;2023-09-07T11:44:49;28.10;99.90
5150;DHT22;2593;52.466;13.436;2023-09-07T11:47:14;28.10;99.90
5150;DHT22;2593;52.466;13.436;2023-09-07T11:49:40;28.30;99.90
5150;DHT22;2593;52.466;13.436;2023-09-07T11:52:05;28.20;99.90
5150;DHT22;2593;52.466;13.436;2023-09-07T11:54:31;28.20;99.90
5150;DHT22;2593;52.466;13.436;2023-09-07T11:56:57;28.20;99.90
5150;DHT22;2593;52.466;13.436;2023-09-07T11:59:22;28.30;99.90
5150;DHT22;2593;52.466;13.436;2023-09-07T12:01:48;28.20;99.90
5150;DHT22;2593;52.466;13.436;2023-09-07T12:04:14;28.10;99.90
5150;DHT22;2593;52.466;13.436;2023-09-07T12:06:39;27.90;99.90
5150;DHT22;2593;52.466;13.436;2023-09-07T12:09:05;27.80;99.90
5150;DHT22;2593;52.466;13.436;2023-09-07T12:11:37;27.80;99.90
5150;DHT22;2593;52.466;13.436;2023-09-07T12:14:02;28.00;99.90
5150;DHT22;2593;52.466;13.436;2023-09-07T12:16:29;28.10;99.90
5150;DHT22;2593;52.466;13.436;2023-09-07T12:18:54;28.10;99.90
5150;DHT22;2593;52.466;13.436;2023-09-07T12:21:20;28.10;99.90
5150;DHT22;2593;52.466;13.436;2023-09-07T12:23:45;28.00;99.90
5150;DHT22;2593;52.466;13.436;2023-09-07T12:26:14;28.00;99.90
5150;DHT22;2593;52.466;13.436;2023-09-07T12:28:44;27.90;99.90
5150;DHT22;2593;52.466;13.436;2023-09-07T12:31:10;27.90;99.90
5150;DHT22;2593;52.466;13.436;2023-09-07T12:33:36;28.00;99.90
5150;DHT22;2593;52.466;13.436;2023-09-07T12:36:02;27.90;99.90
5150;DHT22;2593;52.466;13.436;2023-09-07T12:38:28;27.80;99.90
5150;DHT22;2593;52.466;13.436;2023-09-07T12:40:54;27.90;99.90
5150;DHT22;2593;52.466;13.436;2023-09-07T12:43:20;27.90;99.90
5150;DHT22;2593;52.466;13.436;2023-09-07T12:45:46;28.00;99.90
5150;DHT22;2593;52.466;13.436;2023-09-07T12:48:11;27.90;99.90
5150;DHT22;2593;52.466;13.436;2023-09-07T12:50:37;27.90;99.90
5150;DHT22;2593;52.466;13.436;2023-09-07T12:53:02;27.90;99.90
5150;DHT22;2593;52.466;13.436;2023-09-07T12:55:28;28.00;99.90
5150;DHT22;2593;52.466;13.436;2023-09-07T12:57:55;27.90;99.90
5150;DHT22;2593;52.466;13.436;2023-09-07T13:00:21;28.00;99.90
5150;DHT22;2593;52.466;13.436;2023-09-07T13:02:46;28.10;99.90
5150;DHT22;2593;52.466;13.436;2023-09-07T13:05:12;28.00;99.90
5150;DHT22;2593;52.466;13.436;2023-09-07T13:07:37;28.00;99.90
5150;DHT22;2593;52.466;13.436;2023-09-07T13:10:03;28.10;99.90
5150;DHT22;2593;52.466;13.436;2023-09-07T13:12:32;28.10;99.90
5150;DHT22;2593;52.466;13.436;2023-09-07T13:14:58;28.20;99.90
5150;DHT22;2593;52.466;13.436;2023-09-07T13:17:23;28.20;99.90
5150;DHT22;2593;52.466;13.436;2023-09-07T13:19:49;28.20;99.90
5150;DHT22;2593;52.466;13.436;2023-09-07T13:22:14;28.20;99.90
5150;DHT22;2593;52.466;13.436;2023-09-07T13:24:40;28.10;99.90
5150;DHT22;2593;52.466;13.436;2023-09-07T13:27:05;28.10;99.90
5150;DHT22;2593;52.466;13.436;2023-09-07T13:29:31;28.20;99.90
5150;DHT22;2593;52.466;13.436;2023-09-07T13:31:57;28.20;99.90
5150;DHT22;2593;52.466;13.436;2023-09-07T13:34:24;28.20;99.90
5150;DHT22;2593;52.466;13.436;2023-09-07T13:36:49;28.20;99.90
5150;DHT22;2593;52.466;13.436;2023-09-07T13:39:15;28.20;99.90
5150;DHT22;2593;52.466;13.436;2023-09-07T13:41:40;28.20;99.90
5150;DHT22;2593;52.466;13.436;2023-09-07T13:44:06;28.00;99.90
5150;DHT22;2593;52.466;13.436;2023-09-07T13:46:31;28.00;99.90
5150;DHT22;2593;52.466;13.436;2023-09-07T13:48:57;28.10;99.90
5150;DHT22;2593;52.466;13.436;2023-09-07T13:51:23;28.00;99.90
5150;DHT22;2593;52.466;13.436;2023-09-07T13:53:50;28.00;99.90
5150;DHT22;2593;52.466;13.436;2023-09-07T13:56:15;28.00;99.90
5150;DHT22;2593;52.466;13.436;2023-09-07T13:58:41;28.10;99.90
5150;DHT22;2593;52.466;13.436;2023-09-07T14:01:06;28.00;99.90
5150;DHT22;2593;52.466;13.436;2023-09-07T14:03:32;28.00;99.90
5150;DHT22;2593;52.466;13.436;2023-09-07T14:05:58;28.10;99.90
5150;DHT22;2593;52.466;13.436;2023-09-07T14:08:23;28.10;99.90
5150;DHT22;2593;52.466;13.436;2023-09-07T14:10:49;28.10;99.90
5150;DHT22;2593;52.466;13.436;2023-09-07T14:13:15;28.00;99.90
5150;DHT22;2593;52.466;13.436;2023-09-07T14:15:41;28.00;99.90
5150;DHT22;2593;52.466;13.436;2023-09-07T14:18:07;28.10;99.90
5150;DHT22;2593;52.466;13.436;2023-09-07T14:20:33;28.10;99.90
5150;DHT22;2593;52.466;13.436;2023-09-07T14:22:58;28.10;99.90
5150;DHT22;2593;52.466;13.436;2023-09-07T14:25:26;28.00;99.90
5150;DHT22;2593;52.466;13.436;2023-09-07T14:27:51;28.10;99.90
5150;DHT22;2593;52.466;13.436;2023-09-07T14:30:17;28.10;99.90
5150;DHT22;2593;52.466;13.436;2023-09-07T14:32:43;27.90;99.90
5150;DHT22;2593;52.466;13.436;2023-09-07T14:35:09;27.90;99.90
5150;DHT22;2593;52.466;13.436;2023-09-07T14:37:36;27.90;99.90
5150;DHT22;2593;52.466;13.436;2023-09-07T14:40:02;27.90;99.90
5150;DHT22;2593;52.466;13.436;2023-09-07T14:42:28;28.00;99.90
5150;DHT22;2593;52.466;13.436;2023-09-07T14:44:53;28.00;99.90
5150;DHT22;2593;52.466;13.436;2023-09-07T14:47:19;28.00;99.90
5150;DHT22;2593;52.466;13.436;2023-09-07T14:49:51;28.00;99.90
5150;DHT22;2593;52.466;13.436;2023-09-07T14:52:17;28.00;99.90
5150;DHT22;2593;52.466;13.436;2023-09-07T14:54:43;28.00;99.90
5150;DHT22;2593;52.466;13.436;2023-09-07T14:57:09;27.90;99.90
5150;DHT22;2593;52.466;13.436;2023-09-07T14:59:34;28.00;99.90
5150;DHT22;2593;52.466;13.436;2023-09-07T15:02:00;27.90;99.90
5150;DHT22;2593;52.466;13.436;2023-09-07T15:04:25;27.90;99.90
5150;DHT22;2593;52.466;13.436;2023-09-07T15:06:51;27.90;99.90
5150;DHT22;2593;52.466;13.436;2023-09-07T15:09:17;27.90;99.90
5150;DHT22;2593;52.466;13.436;2023-09-07T15:11:42;27.90;99.90
5150;DHT22;2593;52.466;13.436;2023-09-07T15:14:08;28.00;99.90
5150;DHT22;2593;52.466;13.436;2023-09-07T15:16:33;27.80;99.90
5150;DHT22;2593;52.466;13.436;2023-09-07T15:18:59;27.80;99.90
5150;DHT22;2593;52.466;13.436;2023-09-07T15:21:25;27.90;99.90
5150;DHT22;2593;52.466;13.436;2023-09-07T15:23:51;27.80;99.90
5150;DHT22;2593;52.466;13.436;2023-09-07T15:26:17;27.80;99.90
5150;DHT22;2593;52.466;13.436;2023-09-07T15:28:42;27.80;99.90
5150;DHT22;2593;52.466;13.436;2023-09-07T15:31:08;27.80;99.90
5150;DHT22;2593;52.466;13.436;2023-09-07T15:33:34;27.80;99.90
5150;DHT22;2593;52.466;13.436;2023-09-07T15:36:00;27.70;99.90
5150;DHT22;2593;52.466;13.436;2023-09-07T15:38:26;27.70;99.90
5150;DHT22;2593;52.466;13.436;2023-09-07T15:40:52;27.70;99.90
5150;DHT22;2593;52.466;13.436;2023-09-07T15:43:17;27.70;99.90
5150;DHT22;2593;52.466;13.436;2023-09-07T15:45:43;27.70;99.90